Latest Weather Observations for Esperance Airport

IDW60801

Issued at 1:33 pm WST Tuesday 28 July 2015 (issued every 30 minutes, with the page automatically refreshed every 10 minutes)

About weather observations | Map of weather stations | Latest weather observations for WA | Other Formats
Station Details ID: 009542 Name: ESPERANCE AERO Lat: -33.68 Lon: 121.83 Height: 142.0 m
Data from the previous 72 hours. | See also: Recent months at Esperance Airport
Date/Time
WST
Temp
°C
App
Temp
°C
Dew
Point
Rel
Hum
%
Delta-T
°C
Wind Press
QNH
hPa
Press
MSL
hPa
Rain
since 9 am
mm
Dir
 
Spd
km/h
Gust
km/h
Spd
kts
Gust
kts
28/01:30pm 12.4 7.2 8.7 78 1.9 N 26 35 14 19 1020.7 1020.8 0.0
28/01:00pm 12.3 7.1 9.0 80 1.7 N 26 35 14 19 1021.3 1021.4 0.0
28/12:30pm 12.1 7.2 8.4 78 1.8 NNE 24 32 13 17 1021.6 1021.7 0.0
28/12:00pm 12.0 6.3 8.3 78 1.8 N 28 39 15 21 1022.5 1022.6 0.0
28/11:30am 12.0 6.3 8.3 78 1.8 N 28 37 15 20 1023.2 1023.3 0.0
28/11:00am 11.6 5.9 8.3 80 1.6 N 28 39 15 21 1024.1 1024.1 0.0
28/10:30am 11.4 5.6 8.1 80 1.6 N 28 39 15 21 1024.9 1024.9 0.0
28/10:00am 10.9 5.1 8.0 82 1.4 N 28 33 15 18 1025.4 1025.4 0.0
28/09:30am 10.4 4.6 7.8 84 1.3 N 28 37 15 20 1025.8 1025.9 0.0
28/09:00am 10.1 4.2 7.7 85 1.2 NNE 28 37 15 20 1026.0 1026.1 0.0
28/08:30am 9.5 3.9 7.3 86 1.0 NNE 26 33 14 18 1026.4 1026.5 0.0
28/08:00am 8.9 4.1 7.2 89 0.8 NNE 22 28 12 15 1026.7 1026.8 0.0
28/07:30am 8.5 4.0 6.8 89 0.8 NNE 20 30 11 16 1026.8 1026.9 0.0
28/07:00am 8.3 3.7 6.6 89 0.8 NNE 20 26 11 14 1026.8 1026.9 0.0
28/06:30am 8.6 4.0 6.6 87 0.9 NNE 20 28 11 15 1027.1 1027.2 0.0
28/06:00am 8.5 3.9 6.6 88 0.9 NNE 20 26 11 14 1027.0 1027.1 0.0
28/05:30am 8.1 3.7 6.6 90 0.7 NNE 19 24 10 13 1026.8 1026.9 0.0
28/05:00am 8.1 3.5 6.4 89 0.8 NNE 20 28 11 15 1026.7 1026.8 0.0
28/04:30am 7.8 3.4 6.4 91 0.6 NNE 19 22 10 12 1026.8 1026.9 0.0
28/04:00am 8.1 3.7 6.4 89 0.8 NNE 19 28 10 15 1026.7 1026.8 0.0
28/03:30am 7.7 3.2 6.3 91 0.6 NNE 19 24 10 13 1027.2 1027.3 0.0
28/03:00am 8.0 3.6 6.5 90 0.7 NNE 19 22 10 12 1027.9 1028.0 0.0
28/02:30am 7.8 3.7 6.3 90 0.7 NNE 17 22 9 12 1028.0 1028.1 0.0
28/02:00am 8.0 4.0 6.5 90 0.7 NNE 17 22 9 12 1028.1 1028.2 0.0
28/01:30am 8.3 3.9 6.4 88 0.9 NNE 19 24 10 13 1028.3 1028.4 0.0
28/01:00am 8.4 4.0 6.7 89 0.8 NNE 19 24 10 13 1028.5 1028.6 0.0
28/12:30am 8.5 4.2 6.8 89 0.8 NNE 19 26 10 14 1028.8 1028.9 0.0
28/12:00am 8.5 4.2 6.8 89 0.8 NNE 19 22 10 12 1029.0 1029.1 0.0
 
Date/Time
WST
Temp
°C
App
Temp
°C
Dew
Point
Rel
Hum
%
Delta-T
°C
Wind Press
QNH
hPa
Press
MSL
hPa
Rain
since 9 am
mm
Dir
 
Spd
km/h
Gust
km/h
Spd
kts
Gust
kts
27/11:30pm 8.7 4.8 7.0 89 0.8 NNE 17 22 9 12 1029.1 1029.2 0.0
27/11:00pm 9.2 5.3 7.2 87 0.9 NNE 17 22 9 12 1029.1 1029.2 0.0
27/10:30pm 9.8 6.7 7.4 85 1.1 NNE 13 17 7 9 1029.4 1029.5 0.0
27/10:00pm 9.9 7.3 7.7 86 1.1 NNE 11 13 6 7 1029.8 1029.9 0.0
27/09:30pm 10.9 9.0 7.6 80 1.6 NNE 7 9 4 5 1030.0 1030.1 0.0
27/09:00pm 11.0 8.8 8.0 82 1.5 NE 9 11 5 6 1030.1 1030.2 0.0
27/08:30pm 11.4 9.3 8.4 82 1.5 ENE 9 13 5 7 1030.5 1030.6 0.0
27/08:00pm 12.0 10.4 8.8 81 1.6 ENE 7 11 4 6 1030.6 1030.7 0.0
27/07:30pm 11.7 9.7 8.7 82 1.5 NE 9 11 5 6 1030.6 1030.7 0.0
27/07:00pm 11.3 9.4 8.9 85 1.2 NE 9 9 5 5 1030.5 1030.6 0.0
27/06:30pm 11.3 9.6 8.3 82 1.5 ENE 7 9 4 5 1030.2 1030.3 0.0
27/06:00pm 11.7 10.0 8.4 80 1.6 NE 7 9 4 5 1029.4 1029.5 0.0
27/05:30pm 12.1 11.1 8.9 81 1.6 NNE 4 7 2 4 1029.4 1029.5 0.0
27/05:00pm 13.5 11.3 9.2 75 2.2 NNE 11 17 6 9 1029.1 1029.2 0.0
27/04:30pm 14.6 12.6 10.0 74 2.4 N 11 15 6 8 1029.8 1029.9 0.0
27/04:00pm 15.1 12.5 9.5 69 2.9 N 13 17 7 9 1030.1 1030.2 0.0
27/03:30pm 15.3 12.2 9.0 66 3.2 N 15 19 8 10 1030.5 1030.6 0.0
27/03:00pm 15.3 11.2 8.8 65 3.3 N 20 28 11 15 1030.2 1030.3 0.0
27/02:30pm 15.3 10.9 9.0 66 3.2 N 22 26 12 14 1030.2 1030.3 0.0
27/02:00pm 15.1 10.5 9.7 70 2.8 N 24 32 13 17 1030.3 1030.4 0.0
27/01:30pm 14.8 10.1 9.2 69 2.9 N 24 32 13 17 1030.5 1030.6 0.0
27/01:00pm 14.7 9.7 9.7 72 2.6 N 26 33 14 18 1031.3 1031.3 0.0
27/12:30pm 14.2 9.6 9.6 74 2.4 N 24 33 13 18 1032.2 1032.3 0.0
27/12:00pm 14.0 9.2 10.4 79 1.9 N 26 32 14 17 1032.5 1032.6 0.0
27/11:30am 13.6 8.6 10.8 83 1.5 N 28 33 15 18 1033.2 1033.3 0.0
27/11:00am 13.1 8.4 10.8 86 1.2 N 26 33 14 18 1033.7 1033.8 0.0
27/10:30am 12.2 7.5 10.6 90 0.8 N 26 32 14 17 1034.2 1034.3 0.0
27/10:00am 11.4 7.1 10.6 95 0.4 N 24 33 13 18 1034.8 1034.9 0.0
27/09:30am 10.0 6.2 9.9 99 0.1 N 20 32 11 17 1035.1 1035.2 0.0
27/09:00am 8.8 4.0 8.7 99 0.0 N 24 32 13 17 1035.2 1035.3 0.8
27/08:30am 8.5 3.6 8.4 99 0.0 N 24 32 13 17 1035.3 1035.4 0.8
27/08:00am 6.9 2.0 6.8 99 0.0 N 22 28 12 15 1035.2 1035.3 0.8
27/07:30am 6.3 1.8 6.2 99 0.0 N 19 22 10 12 1035.2 1035.3 0.8
27/07:00am 6.0 1.8 5.9 99 0.0 NNE 17 20 9 11 1034.6 1034.7 0.8
27/06:30am 6.2 1.7 6.1 99 0.0 NNE 19 24 10 13 1034.1 1034.2 0.8
27/06:00am 6.6 2.2 6.5 99 0.0 NNE 19 24 10 13 1033.6 1033.7 0.8
27/05:30am 7.0 2.7 6.9 99 0.0 NNE 19 24 10 13 1033.4 1033.5 0.8
27/05:00am 7.0 3.1 6.9 99 0.0 NNE 17 20 9 11 1033.5 1033.6 0.8
27/04:30am 7.0 3.4 6.9 99 0.0 NNE 15 20 8 11 1033.3 1033.4 0.8
27/04:00am 7.1 3.6 7.0 99 0.0 NNE 15 19 8 10 1033.2 1033.3 0.8
27/03:30am 7.4 3.9 7.3 99 0.0 NNE 15 19 8 10 1033.3 1033.4 0.8
27/03:00am 7.7 4.7 7.6 99 0.0 NNE 13 19 7 10 1033.2 1033.3 0.8
27/02:30am 8.1 5.2 8.0 99 0.0 NNE 13 17 7 9 1033.4 1033.5 0.8
27/02:00am 7.9 5.7 7.8 99 0.0 NNE 9 11 5 6 1033.5 1033.6 0.8
27/01:30am 8.4 6.3 8.3 99 0.0 NE 9 11 5 6 1033.6 1033.7 0.8
27/01:00am 8.4 6.7 8.3 99 0.0 NE 7 9 4 5 1033.7 1033.8 0.8
27/12:30am 9.7 8.3 9.6 99 0.1 NE 7 9 4 5 1034.0 1034.1 0.8
27/12:00am 10.0 8.7 9.9 99 0.1 N 7 9 4 5 1034.6 1034.7 0.8
 
Date/Time
WST
Temp
°C
App
Temp
°C
Dew
Point
Rel
Hum
%
Delta-T
°C
Wind Press
QNH
hPa
Press
MSL
hPa
Rain
since 9 am
mm
Dir
 
Spd
km/h
Gust
km/h
Spd
kts
Gust
kts
26/11:30pm 9.8 8.1 9.7 99 0.1 NNE 9 11 5 6 1034.5 1034.6 0.8
26/11:00pm 9.9 9.1 9.8 99 0.1 N 4 7 2 4 1034.4 1034.5 0.8
26/10:30pm 10.0 8.3 9.9 99 0.1 NNE 9 13 5 7 1033.9 1034.0 0.8
26/10:00pm 10.0 7.9 9.9 99 0.1 NE 11 15 6 8 1034.0 1034.1 0.8
26/09:30pm 9.9 8.6 9.8 99 0.1 NNE 7 11 4 6 1034.0 1034.1 0.8
26/09:00pm 9.9 8.6 9.8 99 0.1 NE 7 11 4 6 1034.0 1034.1 0.8
26/08:30pm 9.6 8.2 9.5 99 0.1 NE 7 9 4 5 1034.1 1034.2 0.8
26/08:00pm 9.1 7.6 9.0 99 0.0 NE 7 9 4 5 1033.9 1034.0 0.8
26/07:30pm 9.3 8.0 9.2 99 0.0 ENE 6 9 3 5 1033.9 1034.0 0.8
26/07:00pm 9.5 8.6 9.4 99 0.0 ENE 4 9 2 5 1033.6 1033.7 0.8
26/06:30pm 10.0 8.9 9.9 99 0.1 NE 6 7 3 4 1033.3 1033.4 0.8
26/06:00pm 10.4 10.5 10.2 99 0.1 CALM 0 9 0 5 1033.3 1033.4 0.8
26/05:30pm 10.8 9.8 10.3 97 0.3 ENE 6 9 3 5 1033.1 1033.2 0.8
26/05:00pm 11.1 10.2 10.5 96 0.3 SE 6 7 3 4 1033.0 1033.1 0.8
26/04:30pm 11.3 9.8 10.7 96 0.3 S 9 9 5 5 1032.8 1032.9 0.8
26/04:00pm 11.6 9.4 10.8 95 0.4 SSW 13 17 7 9 1032.6 1032.7 0.8
26/03:30pm 12.3 11.1 9.7 84 1.3 ESE 6 9 3 5 1032.4 1032.5 0.8
26/03:00pm 12.2 11.6 10.4 89 0.9 WSW 4 9 2 5 1032.2 1032.3 0.8
26/02:30pm 11.7 9.6 11.1 96 0.3 SSW 13 15 7 8 1031.9 1032.0 0.8
26/02:00pm 11.4 8.5 10.9 97 0.3 SSW 17 20 9 11 1031.7 1031.8 0.8
26/01:47pm 12.2 11.3 11.3 94 0.5 SSW 7 20 4 11 1031.6 1031.7 0.8
26/01:30pm 11.6 10.7 10.5 93 0.6 SE 6 7 3 4 1031.6 1031.7 0.8
26/01:04pm 12.1 10.0 11.0 93 0.6 SE 13 15 7 8 1031.7 1031.8 0.6
26/01:00pm 12.9 10.8 11.3 90 0.8 SE 13 15 7 8 1031.7 1031.8 0.6
26/12:30pm 12.9 11.3 11.6 92 0.7 WNW 11 17 6 9 1032.2 1032.3 0.6
26/12:00pm 12.1 10.0 11.0 93 0.6 W 13 20 7 11 1032.4 1032.5 0.6
26/11:30am 11.5 9.5 10.1 91 0.7 W 11 17 6 9 1032.7 1032.8 0.6
26/11:00am 12.5 12.0 12.2 98 0.2 NNE 6 9 3 5 1033.0 1033.1 0.6
26/10:38am 10.7 9.7 10.4 98 0.2 N 6 7 3 4 1033.1 1033.2 0.6
26/10:30am 10.4 10.0 9.9 97 0.3 N 2 7 1 4 1033.2 1033.3 0.6
26/10:12am 11.1 10.0 9.9 92 0.6 SW 6 11 3 6 1033.2 1033.3 0.2
26/10:00am 11.7 10.7 10.4 92 0.7 NW 6 9 3 5 1033.1 1033.2 0.0
26/09:30am 10.4 9.2 10.2 99 0.1 NW 7 9 4 5 1033.0 1033.1 0.0
26/09:00am 9.6 8.4 9.6 100 0.0 NW 6 9 3 5 1032.9 1033.0 5.0
26/08:30am 8.7 7.1 8.7 100 0.0 NNW 7 9 4 5 1032.4 1032.5 5.0
26/08:00am 8.0 5.8 8.0 100 0.0 NNW 9 11 5 6 1032.1 1032.2 5.0
26/07:30am 7.3 5.5 7.3 100 0.0 NW 6 9 3 5 1031.9 1032.0 5.0
26/07:00am 5.9 3.2 5.8 99 0.0 N 9 11 5 6 1031.5 1031.6 5.0
26/06:30am 6.6 3.3 6.5 99 0.0 NW 13 17 7 9 1031.0 1031.1 5.0
26/06:00am 8.2 6.5 8.2 100 0.0 E 7 9 4 5 1030.7 1030.8 5.0
26/05:30am 7.7 5.8 7.7 100 0.0 WSW 7 9 4 5 1030.4 1030.5 5.0
26/05:00am 7.3 5.9 7.3 100 0.0 NNW 4 6 2 3 1030.0 1030.1 4.8
26/04:30am 6.9 5.0 6.8 99 0.0 NW 6 9 3 5 1029.5 1029.6 4.8
26/04:00am 7.2 5.4 7.1 99 0.0 NNW 6 7 3 4 1029.2 1029.3 4.8
26/03:37am 7.8 5.9 7.7 99 0.0 NW 7 9 4 5 1029.3 1029.4 4.8
26/03:30am 8.1 5.9 8.0 99 0.0 W 9 13 5 7 1029.2 1029.3 4.8
26/03:19am 8.2 6.4 8.1 99 0.0 WSW 7 13 4 7 1029.3 1029.4 4.8
26/03:00am 7.5 6.5 7.4 99 0.0 WSW 2 6 1 3 1029.1 1029.2 4.8
26/02:30am 8.5 7.4 8.4 99 0.0 ESE 4 6 2 3 1029.1 1029.2 4.8
26/02:26am 8.6 7.1 8.5 99 0.0 SE 6 7 3 4 1029.0 1029.1 4.8
26/02:03am 9.0 7.4 8.9 99 0.0 S 7 20 4 11 1029.2 1029.3 4.6
26/02:00am 8.8 7.8 8.7 99 0.0 SSE 4 20 2 11 1029.1 1029.2 4.6
26/01:36am 8.8 6.8 8.7 99 0.0 SE 9 13 5 7 1028.9 1029.0 4.4
26/01:30am 8.8 6.4 8.7 99 0.0 SSE 11 19 6 10 1029.0 1029.1 4.4
26/01:00am 8.6 5.4 8.5 99 0.0 W 15 20 8 11 1029.0 1029.1 4.0
26/12:30am 8.5 5.7 8.4 99 0.0 S 13 15 7 8 1028.4 1028.5 3.8
26/12:00am 8.3 6.6 8.2 99 0.0 SSW 7 9 4 5 1028.2 1028.3 3.8
 
Date/Time
WST
Temp
°C
App
Temp
°C
Dew
Point
Rel
Hum
%
Delta-T
°C
Wind Press
QNH
hPa
Press
MSL
hPa
Rain
since 9 am
mm
Dir
 
Spd
km/h
Gust
km/h
Spd
kts
Gust
kts
25/11:30pm 8.9 6.9 8.8 99 0.0 S 9 11 5 6 1028.3 1028.4 3.8
25/11:00pm 9.6 6.9 8.8 95 0.4 SSW 13 17 7 9 1028.2 1028.3 3.8
25/10:30pm 10.0 8.1 9.1 94 0.4 SW 9 13 5 7 1028.1 1028.2 3.8
25/10:00pm 10.1 8.2 9.0 93 0.5 SW 9 13 5 7 1028.0 1028.1 3.8
25/09:30pm 10.1 7.9 9.3 95 0.4 SW 11 13 6 7 1028.0 1028.1 3.8
25/09:00pm 10.4 7.8 9.2 92 0.6 SW 13 15 7 8 1027.8 1027.9 3.8
25/08:30pm 10.3 7.8 9.7 96 0.3 SSW 13 15 7 8 1027.7 1027.8 3.8
25/08:00pm 10.6 7.9 10.3 98 0.2 SW 15 17 8 9 1027.7 1027.8 3.8
25/07:30pm 10.8 8.9 10.6 99 0.1 SW 11 15 6 8 1027.3 1027.4 3.8
25/07:00pm 10.9 8.7 10.7 99 0.1 SW 13 15 7 8 1027.0 1027.1 3.8
25/06:30pm 10.8 9.3 10.6 99 0.1 WSW 9 11 5 6 1026.4 1026.5 3.8
25/06:00pm 11.2 9.5 11.2 100 0.0 SW 11 13 6 7 1025.9 1026.0 3.8
25/05:30pm 11.4 9.4 11.4 100 0.0 SW 13 15 7 8 1025.5 1025.6 3.8
25/05:00pm 11.6 10.0 11.6 100 0.0 SW 11 15 6 8 1025.1 1025.1 3.8
25/04:58pm 11.6 9.6 11.6 100 0.0 SW 13 17 7 9 1025.1 1025.1 3.8
25/04:37pm 12.1 11.0 12.1 100 0.0 SW 9 13 5 7 1024.8 1024.8 3.8
25/04:30pm 12.1 11.0 12.1 100 0.0 SW 9 13 5 7 1024.6 1024.6 3.6
25/04:00pm 11.9 10.4 11.9 100 0.0 WSW 11 15 6 8 1024.4 1024.4 3.6
25/03:49pm 11.8 9.9 11.8 100 0.0 WSW 13 17 7 9 1024.3 1024.3 3.6
25/03:34pm 11.8 9.1 11.8 100 0.0 WSW 17 24 9 13 1024.2 1024.2 3.6
25/03:30pm 11.7 9.0 11.7 100 0.0 WSW 17 24 9 13 1024.2 1024.2 3.6
25/03:18pm 11.7 9.0 11.7 100 0.0 WSW 17 20 9 11 1024.0 1024.0 3.4
25/03:13pm 12.4 9.9 12.4 100 0.0 W 17 20 9 11 1023.9 1023.9 2.8
25/03:00pm 12.5 10.4 12.5 100 0.0 W 15 19 8 10 1023.7 1023.8 2.2
25/02:30pm 12.7 10.7 12.7 100 0.0 SSW 15 19 8 10 1023.4 1023.5 2.2
25/02:22pm 12.4 10.3 12.4 100 0.0 SW 15 20 8 11 1023.3 1023.4 2.2
25/02:14pm 12.3 9.2 12.3 100 0.0 SW 20 28 11 15 1023.3 1023.4 2.2
25/02:00pm 12.5 9.1 12.5 100 0.0 SW 22 28 12 15 1023.2 1023.3 1.8
25/01:52pm 12.3 7.7 12.3 100 0.0 WSW 28 39 15 21 1023.1 1023.2 1.6
25/01:36pm 12.3 7.3 12.1 99 0.1 WSW 30 43 16 23 1023.0 1023.1 1.2

Other Formats:

Comma delimited format used in spreadsheet applications
http://www.bom.gov.au/fwo/IDW60801/IDW60801.95638.axf

JavaScript Object Notation format (JSON) in row-major order
http://www.bom.gov.au/fwo/IDW60801/IDW60801.95638.json